Time;durP1;ratioP1;P1;durP2;ratioP2;P2;SDS_P1;SDS_P2;PMS_P1;PMS_P2;Temp;Humidity;BMP_temperature;BMP_pressure;BME280_temperature;BME280_humidity;BME280_pressure;Samples;Min_cycle;Max_cycle;Signal;HPM_P1;HPM_P2
2021/12/18 00:01:05;;;;;;;29.17;15.43;;;2.90;99.90;;;;;;5035359;28;20029;-80
2021/12/18 00:03:31;;;;;;;29.52;15.98;;;2.90;99.90;;;;;;5040672;28;20032;-79
2021/12/18 00:05:57;;;;;;;27.08;15.63;;;2.80;99.90;;;;;;5022163;28;20025;-80
2021/12/18 00:08:23;;;;;;;29.67;15.07;;;2.90;99.90;;;;;;5040889;28;20029;-79
2021/12/18 00:10:48;;;;;;;26.15;14.18;;;2.80;99.90;;;;;;5040272;28;20397;-80
2021/12/18 00:13:15;;;;;;;25.77;14.75;;;2.80;99.90;;;;;;5029241;28;20474;-79
2021/12/18 00:15:40;;;;;;;25.48;14.70;;;2.80;99.90;;;;;;5023982;28;20029;-80
2021/12/18 00:18:06;;;;;;;25.95;13.98;;;2.70;99.90;;;;;;5019147;28;20029;-78
2021/12/18 00:20:35;;;;;;;24.40;14.05;;;2.70;99.90;;;;;;5020287;28;20049;-80
2021/12/18 00:23:01;;;;;;;26.48;14.48;;;2.70;99.90;;;;;;5020477;28;20112;-81
2021/12/18 00:25:26;;;;;;;27.00;15.60;;;2.60;99.90;;;;;;5035969;28;20446;-80
2021/12/18 00:27:52;;;;;;;29.70;15.90;;;2.60;99.90;;;;;;5038383;28;20028;-80
2021/12/18 00:30:18;;;;;;;29.15;16.13;;;2.50;99.90;;;;;;5014832;28;20026;-79
2021/12/18 00:32:44;;;;;;;25.48;15.60;;;2.50;99.90;;;;;;5038982;28;20036;-79
2021/12/18 00:35:10;;;;;;;28.58;16.35;;;2.40;99.90;;;;;;5042034;28;20026;-78
2021/12/18 00:37:35;;;;;;;28.50;16.25;;;2.40;99.90;;;;;;5040512;28;20026;-79
2021/12/18 00:40:06;;;;;;;27.67;16.23;;;2.30;99.90;;;;;;5041052;28;20022;-80
2021/12/18 00:45:16;;;;;;;32.35;17.45;;;2.30;99.90;;;;;;5021055;28;20060;-79
2021/12/18 00:47:44;;;;;;;29.42;15.88;;;2.20;99.90;;;;;;5020367;28;20095;-79
2021/12/18 00:50:14;;;;;;;28.67;15.52;;;2.20;99.90;;;;;;5020531;28;20056;-80
2021/12/18 00:52:40;;;;;;;30.75;15.88;;;2.20;99.90;;;;;;5020574;28;20026;-79
2021/12/18 00:55:06;;;;;;;30.58;16.98;;;2.10;99.90;;;;;;5035449;28;20021;-79
2021/12/18 00:57:32;;;;;;;33.30;18.00;;;2.00;99.90;;;;;;5035938;28;20021;-78
2021/12/18 01:00:02;;;;;;;31.63;17.52;;;2.00;99.90;;;;;;5028688;28;20064;-78
2021/12/18 01:02:29;;;;;;;33.28;17.58;;;2.00;99.90;;;;;;5036008;28;20018;-79
2021/12/18 01:04:55;;;;;;;30.73;16.77;;;2.00;99.90;;;;;;5019422;28;20040;-78
2021/12/18 01:07:22;;;;;;;32.65;16.15;;;1.90;99.90;;;;;;5037184;28;20059;-79
2021/12/18 01:10:05;;;;;;;33.95;17.27;;;1.90;99.90;;;;;;5020591;28;20044;-79
2021/12/18 01:12:39;;;;;;;33.38;17.35;;;1.80;99.90;;;;;;5021439;28;20021;-79
2021/12/18 01:15:18;;;;;;;32.90;16.90;;;1.80;99.90;;;;;;5038362;28;20424;-77
2021/12/18 01:23:14;;;;;;;37.70;18.70;;;1.80;99.90;;;;;;5034424;28;20067;-79
2021/12/18 01:25:40;;;;;;;38.38;19.52;;;1.90;99.90;;;;;;4995582;28;20034;-79
2021/12/18 01:28:06;;;;;;;38.72;18.48;;;1.80;99.90;;;;;;4997306;28;20050;-78
2021/12/18 01:30:32;;;;;;;41.05;19.45;;;1.80;99.90;;;;;;5033451;28;20017;-77
2021/12/18 01:32:58;;;;;;;39.40;20.83;;;1.80;99.90;;;;;;5040503;28;20055;-80
2021/12/18 01:35:24;;;;;;;42.17;20.50;;;1.90;99.90;;;;;;5039679;28;20025;-79
2021/12/18 01:37:51;;;;;;;40.40;20.00;;;1.90;99.90;;;;;;5042016;28;20029;-79
2021/12/18 01:40:19;;;;;;;41.50;20.83;;;1.90;99.90;;;;;;5043282;28;20089;-79
2021/12/18 01:45:46;;;;;;;42.35;22.05;;;2.00;99.90;;;;;;5027890;28;20061;-78
2021/12/18 01:53:37;;;;;;;35.67;18.80;;;1.90;99.90;;;;;;5020032;28;20038;-78
2021/12/18 01:56:04;;;;;;;33.42;17.05;;;2.00;99.90;;;;;;5023834;28;20018;-79
2021/12/18 01:58:30;;;;;;;35.55;18.48;;;2.10;99.90;;;;;;5022635;28;20022;-78
2021/12/18 02:00:57;;;;;;;43.28;20.05;;;2.10;99.90;;;;;;5026987;28;20089;-80
2021/12/18 02:03:24;;;;;;;35.10;18.88;;;2.10;99.90;;;;;;5025600;28;20026;-79
2021/12/18 02:05:50;;;;;;;35.60;19.27;;;2.00;99.90;;;;;;5035431;28;20077;-79
2021/12/18 02:08:22;;;;;;;35.45;17.60;;;2.00;99.90;;;;;;5022865;28;20491;-78
2021/12/18 02:10:54;;;;;;;32.97;18.05;;;2.00;99.90;;;;;;5016433;28;20032;-77
2021/12/18 02:21:23;;;;;;;38.60;16.92;;;2.20;99.90;;;;;;5014100;28;20557;-79
2021/12/18 02:23:50;;;;;;;27.92;15.13;;;2.20;99.90;;;;;;5026869;28;20060;-78
2021/12/18 02:26:16;;;;;;;27.90;14.20;;;2.20;99.90;;;;;;5019346;28;20030;-79
2021/12/18 02:28:46;;;;;;;27.35;14.82;;;2.30;99.90;;;;;;5035723;28;20030;-77
2021/12/18 02:31:13;;;;;;;27.73;14.68;;;2.30;99.90;;;;;;5011872;28;20065;-80
2021/12/18 02:33:39;;;;;;;31.55;16.88;;;2.30;99.90;;;;;;5024383;28;20026;-79
2021/12/18 02:36:08;;;;;;;36.50;18.67;;;2.30;99.90;;;;;;5022009;28;20466;-79
2021/12/18 02:42:08;;;;;;;38.13;18.48;;;2.10;99.90;;;;;;5040070;28;20033;-78
2021/12/18 02:44:07;;;;;;;34.83;16.70;;;2.00;99.90;;;;;;5027106;28;20041;-79
2021/12/18 02:46:33;;;;;;;;;;;2.00;99.90;;;;;;5041748;28;20449;-78
2021/12/18 02:49:06;;;;;;;36.05;16.42;;;2.00;99.90;;;;;;5040475;28;19916;-79
2021/12/18 02:51:32;;;;;;;36.40;18.23;;;2.00;99.90;;;;;;5040289;28;20125;-78
2021/12/18 02:53:58;;;;;;;35.53;16.75;;;2.00;99.90;;;;;;5036688;28;20045;-78
2021/12/18 02:56:24;;;;;;;38.00;17.65;;;2.10;99.90;;;;;;5003128;28;20040;-77
2021/12/18 02:58:58;;;;;;;35.10;17.92;;;2.10;99.90;;;;;;5018629;28;20026;-78
2021/12/18 03:01:26;;;;;;;34.47;16.80;;;2.00;99.90;;;;;;5030446;28;20486;-79
2021/12/18 03:03:54;;;;;;;32.33;16.05;;;1.90;99.90;;;;;;5041966;28;20026;-78
2021/12/18 03:27:21;;;;;;;36.65;16.15;;;1.50;99.90;;;;;;5021513;28;20093;-78
2021/12/18 03:29:47;;;;;;;33.25;14.77;;;1.50;99.90;;;;;;5024903;28;20091;-78
2021/12/18 03:32:13;;;;;;;29.63;12.63;;;1.60;99.90;;;;;;5006698;28;20068;-80
2021/12/18 03:34:39;;;;;;;24.60;13.48;;;1.70;99.90;;;;;;5004036;28;20402;-77
2021/12/18 03:37:05;;;;;;;29.45;13.68;;;1.80;99.90;;;;;;5041678;28;20025;-78
2021/12/18 03:39:31;;;;;;;30.13;13.45;;;1.70;99.90;;;;;;5030855;28;20473;-80
2021/12/18 03:41:57;;;;;;;30.50;15.13;;;1.70;99.90;;;;;;5043449;28;20090;-78
2021/12/18 03:44:23;;;;;;;29.80;14.23;;;1.70;99.90;;;;;;5042114;28;20055;-79
2021/12/18 03:46:50;;;;;;;27.85;13.15;;;1.70;99.90;;;;;;5037103;28;20021;-77
2021/12/18 03:49:16;;;;;;;28.17;12.85;;;1.80;99.90;;;;;;5037061;28;20488;-77
2021/12/18 03:51:41;;;;;;;27.80;12.93;;;1.90;99.90;;;;;;5037531;28;20036;-81
2021/12/18 03:54:07;;;;;;;28.83;13.30;;;1.90;99.90;;;;;;5020243;28;20033;-77
2021/12/18 03:56:33;;;;;;;28.30;14.50;;;1.90;99.90;;;;;;5028909;28;20021;-78
2021/12/18 03:58:59;;;;;;;27.52;13.25;;;1.90;99.90;;;;;;5025749;28;20427;-78
2021/12/18 04:01:26;;;;;;;29.30;14.00;;;1.90;99.90;;;;;;5037784;28;20089;-79
2021/12/18 04:03:51;;;;;;;29.90;14.27;;;1.90;99.90;;;;;;5055956;28;20013;-81
2021/12/18 04:06:18;;;;;;;27.65;13.95;;;1.70;99.90;;;;;;5048008;28;20026;-80
2021/12/18 04:08:43;;;;;;;31.15;15.80;;;1.70;99.90;;;;;;5037667;28;20044;-77
2021/12/18 04:11:09;;;;;;;30.38;15.30;;;1.60;99.90;;;;;;5025437;28;20026;-77
2021/12/18 04:13:35;;;;;;;29.73;14.07;;;1.50;99.90;;;;;;5042466;28;20398;-79
2021/12/18 04:16:01;;;;;;;29.77;13.02;;;1.50;99.90;;;;;;5038404;28;20029;-79
2021/12/18 04:18:27;;;;;;;29.42;13.75;;;1.50;99.90;;;;;;5020531;28;20084;-78
2021/12/18 04:20:52;;;;;;;33.45;13.63;;;1.50;99.90;;;;;;5021364;28;20032;-80
2021/12/18 04:23:18;;;;;;;31.85;15.05;;;1.50;99.90;;;;;;5022018;28;20044;-80
2021/12/18 04:25:44;;;;;;;31.92;15.38;;;1.50;99.90;;;;;;5021831;28;20040;-80
2021/12/18 04:28:10;;;;;;;27.27;14.45;;;1.40;99.90;;;;;;5027838;28;20113;-78
2021/12/18 04:30:36;;;;;;;32.40;14.57;;;1.30;99.90;;;;;;5024183;28;20022;-80
2021/12/18 04:33:03;;;;;;;26.27;12.70;;;1.30;99.90;;;;;;5034031;28;20021;-79
2021/12/18 04:35:29;;;;;;;26.27;12.52;;;1.30;99.90;;;;;;5029023;28;20037;-78
2021/12/18 04:37:55;;;;;;;27.80;13.00;;;1.40;99.90;;;;;;4989548;28;20029;-77
2021/12/18 04:40:25;;;;;;;30.25;13.25;;;1.50;99.90;;;;;;5040047;28;20021;-79
2021/12/18 04:42:52;;;;;;;25.33;12.90;;;1.40;99.90;;;;;;5035125;28;20067;-79
2021/12/18 04:45:17;;;;;;;24.75;12.27;;;1.40;99.90;;;;;;5039866;28;20024;-79
2021/12/18 04:47:43;;;;;;;22.20;10.70;;;1.40;99.90;;;;;;5042117;28;20041;-80
2021/12/18 04:50:09;;;;;;;21.30;11.02;;;1.40;99.90;;;;;;5017640;28;20026;-80
2021/12/18 04:52:35;;;;;;;25.15;12.75;;;1.50;99.90;;;;;;5016900;28;20037;-79
2021/12/18 04:55:01;;;;;;;25.13;11.68;;;1.60;99.90;;;;;;5016419;28;20022;-79
2021/12/18 04:57:26;;;;;;;20.92;10.18;;;1.50;99.90;;;;;;5018523;28;20394;-79
2021/12/18 04:59:53;;;;;;;19.25;9.90;;;1.50;99.90;;;;;;5024108;28;20018;-80
2021/12/18 05:02:23;;;;;;;21.90;10.45;;;1.50;99.90;;;;;;5020633;28;20382;-77
2021/12/18 05:04:48;;;;;;;22.65;10.80;;;1.40;99.90;;;;;;5025247;28;20033;-78
2021/12/18 05:07:14;;;;;;;25.80;11.60;;;1.30;99.90;;;;;;5024740;28;20026;-80
2021/12/18 05:09:40;;;;;;;21.02;10.93;;;1.30;99.90;;;;;;5016434;28;20064;-80
2021/12/18 05:12:08;;;;;;;21.95;10.63;;;1.20;99.90;;;;;;5023116;28;20045;-77
2021/12/18 05:14:34;;;;;;;24.88;11.88;;;1.20;99.90;;;;;;5024009;28;20029;-78
2021/12/18 05:17:00;;;;;;;19.73;10.85;;;1.20;99.90;;;;;;5045147;22;20060;-82
2021/12/18 05:19:26;;;;;;;19.60;9.13;;;1.20;99.90;;;;;;5044336;28;20021;-82
2021/12/18 05:21:52;;;;;;;21.08;10.43;;;1.30;99.90;;;;;;5079033;28;20028;-82
2021/12/18 05:24:17;;;;;;;18.65;9.88;;;1.30;99.90;;;;;;5080288;28;20024;-80
2021/12/18 05:26:43;;;;;;;18.02;8.77;;;1.30;99.90;;;;;;5079796;28;20024;-81
2021/12/18 05:29:09;;;;;;;15.98;8.38;;;1.20;99.90;;;;;;5070651;28;20029;-81
2021/12/18 05:31:35;;;;;;;18.88;10.05;;;1.20;99.90;;;;;;5053568;28;20055;-81
2021/12/18 05:34:03;;;;;;;18.77;9.50;;;1.20;99.90;;;;;;5054339;28;20039;-80
2021/12/18 05:39:09;;;;;;;19.08;9.88;;;1.20;99.90;;;;;;5060471;28;20462;-81
2021/12/18 05:41:35;;;;;;;20.17;10.13;;;1.20;99.90;;;;;;5062278;28;20052;-82
2021/12/18 05:44:01;;;;;;;16.77;8.98;;;1.10;99.90;;;;;;5061093;28;20039;-81
2021/12/18 05:46:27;;;;;;;17.50;8.60;;;1.10;99.90;;;;;;5062558;28;20033;-80
2021/12/18 05:48:53;;;;;;;22.15;11.13;;;1.20;99.90;;;;;;5061176;28;20033;-80
2021/12/18 05:51:19;;;;;;;21.42;10.60;;;1.20;99.90;;;;;;5070195;28;20024;-80
2021/12/18 05:53:45;;;;;;;23.00;10.45;;;1.20;99.90;;;;;;5080928;28;20507;-80
2021/12/18 05:56:11;;;;;;;19.88;9.82;;;1.20;99.90;;;;;;5074134;28;20117;-80
2021/12/18 05:58:36;;;;;;;21.65;11.05;;;1.20;99.90;;;;;;5053312;28;20035;-81
2021/12/18 06:01:02;;;;;;;24.42;12.88;;;1.30;99.90;;;;;;5041085;28;20401;-80
2021/12/18 06:03:28;;;;;;;22.05;10.32;;;1.30;99.90;;;;;;5042898;28;20032;-80
2021/12/18 06:05:54;;;;;;;20.90;10.68;;;1.30;99.90;;;;;;5056412;28;20028;-80
2021/12/18 06:08:20;;;;;;;22.13;10.90;;;1.20;99.90;;;;;;5070544;28;20027;-79
2021/12/18 06:10:46;;;;;;;17.67;9.68;;;1.20;99.90;;;;;;5070328;28;20055;-79
2021/12/18 06:13:11;;;;;;;17.95;8.82;;;1.10;99.90;;;;;;5066817;28;20054;-79
2021/12/18 06:15:37;;;;;;;18.48;9.18;;;1.10;99.90;;;;;;5077998;28;20025;-78
2021/12/18 06:18:03;;;;;;;21.55;10.35;;;1.10;99.90;;;;;;5065050;28;20076;-81
2021/12/18 06:20:29;;;;;;;19.90;10.63;;;1.20;99.90;;;;;;5050039;28;20021;-79
2021/12/18 06:22:56;;;;;;;20.60;10.07;;;1.20;99.90;;;;;;5058517;28;20028;-80
2021/12/18 06:25:22;;;;;;;21.05;10.23;;;1.40;99.90;;;;;;5071568;28;20021;-80
2021/12/18 06:27:48;;;;;;;21.67;11.13;;;1.40;99.90;;;;;;5074543;28;20036;-80
2021/12/18 06:30:17;;;;;;;17.25;8.80;;;1.50;99.90;;;;;;5062296;28;20493;-80
2021/12/18 06:32:43;;;;;;;14.95;8.57;;;1.50;99.90;;;;;;5059404;28;20385;-79
2021/12/18 06:35:09;;;;;;;15.65;8.25;;;1.50;99.90;;;;;;5058297;28;20132;-79
2021/12/18 06:37:36;;;;;;;17.30;8.57;;;1.50;99.90;;;;;;5067438;28;20098;-79
2021/12/18 06:40:03;;;;;;;17.25;8.27;;;1.50;99.90;;;;;;5076780;28;20020;-80
2021/12/18 06:42:29;;;;;;;15.48;8.10;;;1.40;99.90;;;;;;5077464;28;20465;-80
2021/12/18 06:44:55;;;;;;;13.85;7.68;;;1.30;99.90;;;;;;5050586;28;20039;-79
2021/12/18 06:47:20;;;;;;;14.35;7.80;;;1.30;99.90;;;;;;5064647;28;20009;-78
2021/12/18 06:49:46;;;;;;;14.70;7.70;;;1.30;99.90;;;;;;5089272;28;20074;-79
2021/12/18 06:52:12;;;;;;;14.57;8.18;;;1.30;99.90;;;;;;5088471;28;20101;-80
2021/12/18 06:54:37;;;;;;;13.90;7.10;;;1.20;99.90;;;;;;5072901;28;20121;-77
2021/12/18 06:57:03;;;;;;;13.65;7.90;;;1.30;99.90;;;;;;5082750;28;20114;-78
2021/12/18 06:59:29;;;;;;;13.77;8.00;;;1.40;99.90;;;;;;5076758;28;20029;-78
2021/12/18 07:01:56;;;;;;;14.63;7.03;;;1.30;99.90;;;;;;5067271;28;20055;-79
2021/12/18 07:04:24;;;;;;;13.93;7.88;;;1.40;99.90;;;;;;5058954;28;20056;-80
2021/12/18 07:06:54;;;;;;;16.17;8.57;;;1.40;99.90;;;;;;5073206;28;20030;-80
2021/12/18 07:09:20;;;;;;;16.10;8.25;;;1.40;99.90;;;;;;5069125;28;20388;-78
2021/12/18 07:11:46;;;;;;;16.05;8.38;;;1.40;99.90;;;;;;5058725;28;20124;-80
2021/12/18 07:14:12;;;;;;;16.80;8.55;;;1.40;99.90;;;;;;5059616;28;20105;-80
2021/12/18 07:16:39;;;;;;;16.58;8.48;;;1.50;99.90;;;;;;5069150;28;20031;-79
2021/12/18 07:19:04;;;;;;;17.65;8.98;;;1.50;99.90;;;;;;5067545;28;20044;-80
2021/12/18 07:21:30;;;;;;;16.67;7.45;;;1.60;99.90;;;;;;5067645;28;20029;-79
2021/12/18 07:23:56;;;;;;;19.17;8.82;;;1.60;99.90;;;;;;5066163;28;20028;-79
2021/12/18 07:26:22;;;;;;;15.57;7.65;;;1.50;99.90;;;;;;5063697;28;20039;-79
2021/12/18 07:28:47;;;;;;;14.73;7.47;;;1.40;99.90;;;;;;5054735;28;20036;-79
2021/12/18 07:31:13;;;;;;;13.57;6.82;;;1.40;99.90;;;;;;5064646;28;20036;-79
2021/12/18 07:33:41;;;;;;;13.32;6.63;;;1.40;99.90;;;;;;5062595;28;20378;-80
2021/12/18 07:36:08;;;;;;;11.70;6.60;;;1.50;99.90;;;;;;5071877;28;20020;-80
2021/12/18 07:38:34;;;;;;;12.52;7.07;;;1.60;99.90;;;;;;5067090;28;20378;-80
2021/12/18 07:41:01;;;;;;;15.13;7.68;;;1.60;99.90;;;;;;5077910;28;20021;-79
2021/12/18 07:43:27;;;;;;;13.27;7.30;;;1.70;99.90;;;;;;5066299;28;20079;-79
2021/12/18 07:45:53;;;;;;;15.48;7.43;;;1.70;99.90;;;;;;5054072;28;20056;-79
2021/12/18 07:48:19;;;;;;;10.98;6.88;;;1.60;99.90;;;;;;5075743;28;20090;-81
2021/12/18 07:50:45;;;;;;;15.75;7.07;;;1.70;99.90;;;;;;5062447;28;20074;-80
2021/12/18 07:53:11;;;;;;;14.38;6.95;;;1.70;99.90;;;;;;5056053;28;20038;-79
2021/12/18 07:55:38;;;;;;;11.95;6.80;;;1.80;99.90;;;;;;5065025;28;20100;-79
2021/12/18 07:58:04;;;;;;;13.43;7.70;;;1.80;99.90;;;;;;5062570;28;20025;-80
2021/12/18 08:00:30;;;;;;;12.10;6.85;;;1.80;99.90;;;;;;5045626;28;20020;-80
2021/12/18 08:02:55;;;;;;;12.30;7.35;;;1.80;99.90;;;;;;5061790;28;20110;-79
2021/12/18 08:05:21;;;;;;;14.10;7.55;;;1.90;99.90;;;;;;5057344;28;20060;-79
2021/12/18 08:07:47;;;;;;;18.60;9.50;;;2.00;99.90;;;;;;5040814;28;20021;-80
2021/12/18 08:10:13;;;;;;;20.02;10.38;;;2.00;99.90;;;;;;5059274;28;20470;-79
2021/12/18 08:12:39;;;;;;;17.85;9.43;;;1.90;99.90;;;;;;5042225;28;20032;-79
2021/12/18 08:15:06;;;;;;;16.17;8.10;;;1.80;99.90;;;;;;5073630;28;20029;-80
2021/12/18 08:17:32;;;;;;;13.57;7.97;;;1.70;99.90;;;;;;5073550;28;20044;-80
2021/12/18 08:19:58;;;;;;;18.15;9.35;;;1.80;99.90;;;;;;5077211;28;20028;-79
2021/12/18 08:22:23;;;;;;;14.80;8.35;;;1.80;99.90;;;;;;5061224;28;20028;-79
2021/12/18 08:24:49;;;;;;;15.13;7.95;;;1.80;99.90;;;;;;5054375;28;20078;-80
2021/12/18 08:27:15;;;;;;;17.20;9.35;;;1.90;99.90;;;;;;5064418;28;20117;-80
2021/12/18 08:29:41;;;;;;;17.02;9.23;;;2.00;99.90;;;;;;5040985;28;20025;-80
2021/12/18 08:32:07;;;;;;;16.17;9.20;;;2.00;99.90;;;;;;5058640;28;20029;-81
2021/12/18 08:34:33;;;;;;;17.70;8.73;;;2.00;99.90;;;;;;5061637;28;20025;-81
2021/12/18 08:36:58;;;;;;;17.40;9.00;;;2.10;99.90;;;;;;5076452;28;20061;-80
2021/12/18 08:39:33;;;;;;;22.63;11.65;;;2.20;99.90;;;;;;5081304;28;20068;-82
2021/12/18 08:42:03;;;;;;;19.35;10.40;;;2.30;99.90;;;;;;5062725;28;20009;-80
2021/12/18 08:44:29;;;;;;;19.60;10.52;;;2.30;99.90;;;;;;5066844;28;20031;-79
2021/12/18 08:46:54;;;;;;;16.23;8.98;;;2.30;99.90;;;;;;5058895;28;20025;-80
2021/12/18 08:49:21;;;;;;;17.08;8.88;;;2.20;99.90;;;;;;5078099;28;20032;-80
2021/12/18 08:51:47;;;;;;;13.73;7.88;;;2.20;99.90;;;;;;5081647;28;20047;-80
2021/12/18 08:54:13;;;;;;;18.55;9.43;;;2.30;99.90;;;;;;5060426;28;20021;-83
2021/12/18 08:56:38;;;;;;;15.40;8.25;;;2.30;99.90;;;;;;5060765;28;20025;-79
2021/12/18 08:59:04;;;;;;;16.75;9.30;;;2.30;99.90;;;;;;5041161;28;20036;-80
2021/12/18 09:01:31;;;;;;;16.42;9.25;;;2.40;99.90;;;;;;5059106;28;20166;-78
2021/12/18 09:03:57;;;;;;;17.05;8.93;;;2.40;99.90;;;;;;5058635;28;20026;-79
2021/12/18 09:06:23;;;;;;;15.73;8.30;;;2.40;99.90;;;;;;5058733;28;20061;-80
2021/12/18 09:08:49;;;;;;;18.50;10.13;;;2.50;99.90;;;;;;5074061;28;20032;-80
2021/12/18 09:11:15;;;;;;;19.30;10.20;;;2.50;99.90;;;;;;5056268;28;20022;-81
2021/12/18 09:13:41;;;;;;;15.75;9.63;;;2.60;99.90;;;;;;5057270;28;20035;-79
2021/12/18 09:16:07;;;;;;;18.42;8.77;;;2.60;99.90;;;;;;5064487;28;20457;-80
2021/12/18 09:18:33;;;;;;;17.80;9.52;;;2.70;99.90;;;;;;5072817;28;20032;-80
2021/12/18 09:21:00;;;;;;;20.17;9.25;;;2.60;99.90;;;;;;5063006;28;20079;-79
2021/12/18 09:23:25;;;;;;;16.38;8.48;;;2.60;99.90;;;;;;5070369;28;20042;-80
2021/12/18 09:25:51;;;;;;;14.90;7.85;;;2.70;99.90;;;;;;5069661;28;20076;-79
2021/12/18 09:28:17;;;;;;;16.00;8.52;;;2.70;99.90;;;;;;5065071;28;20349;-80
2021/12/18 09:30:43;;;;;;;14.95;7.88;;;2.80;99.90;;;;;;5056333;28;20489;-79
2021/12/18 09:33:15;;;;;;;19.92;10.60;;;2.80;99.90;;;;;;5040743;28;20025;-80
2021/12/18 09:35:41;;;;;;;23.13;11.25;;;2.60;99.90;;;;;;5059672;28;20371;-80
2021/12/18 09:38:07;;;;;;;17.67;10.13;;;2.50;99.90;;;;;;5069439;28;20025;-79
2021/12/18 09:40:34;;;;;;;16.45;9.20;;;2.50;99.90;;;;;;5078313;28;20024;-79
2021/12/18 09:42:59;;;;;;;16.65;9.15;;;2.60;99.90;;;;;;5077655;28;20473;-78
2021/12/18 09:45:26;;;;;;;18.33;9.93;;;2.70;99.90;;;;;;5052302;28;20033;-79
2021/12/18 09:47:52;;;;;;;23.20;11.30;;;2.70;99.90;;;;;;5060204;28;20031;-80
2021/12/18 09:50:25;;;;;;;17.88;9.43;;;2.60;99.90;;;;;;5059779;28;20025;-80
2021/12/18 09:52:52;;;;;;;18.70;9.95;;;2.60;99.90;;;;;;5050095;28;20362;-81
2021/12/18 09:55:18;;;;;;;18.88;9.93;;;2.70;99.90;;;;;;5059108;28;20040;-81
2021/12/18 09:57:46;;;;;;;20.52;10.13;;;2.70;99.90;;;;;;5061946;28;20040;-80
2021/12/18 10:00:15;;;;;;;24.20;11.98;;;2.60;99.90;;;;;;5061878;28;20032;-79
2021/12/18 10:02:41;;;;;;;23.65;12.10;;;2.70;99.90;;;;;;5057748;28;20036;-81
2021/12/18 10:05:18;;;;;;;20.98;11.30;;;2.70;99.90;;;;;;5058147;28;20021;-80
2021/12/18 10:07:43;;;;;;;26.25;12.65;;;2.60;99.90;;;;;;5047946;28;20025;-80
2021/12/18 10:10:10;;;;;;;25.05;11.88;;;2.50;99.90;;;;;;5059640;28;20025;-79
2021/12/18 10:12:36;;;;;;;20.77;11.60;;;2.50;99.90;;;;;;5073791;28;20068;-79
2021/12/18 10:15:14;;;;;;;22.83;11.02;;;2.50;99.90;;;;;;5066221;28;20025;-80
2021/12/18 10:17:42;;;;;;;23.65;12.00;;;2.50;99.90;;;;;;5070411;28;20025;-79
2021/12/18 10:20:10;;;;;;;21.77;11.27;;;2.50;99.90;;;;;;5066278;28;20021;-80
2021/12/18 10:22:50;;;;;;;26.08;12.02;;;2.60;99.90;;;;;;5079011;28;20021;-80
2021/12/18 10:25:20;;;;;;;23.13;11.85;;;2.80;99.90;;;;;;5077845;28;20024;-80
2021/12/18 10:28:09;;;;;;;21.83;11.10;;;2.80;99.90;;;;;;5063001;28;20029;-79
2021/12/18 10:30:41;;;;;;;20.05;10.35;;;2.90;99.90;;;;;;5055733;28;20071;-80
2021/12/18 10:33:11;;;;;;;19.30;10.48;;;2.90;99.90;;;;;;5057188;28;20029;-80
2021/12/18 10:35:45;;;;;;;17.33;9.02;;;3.00;99.90;;;;;;5076404;28;20025;-80
2021/12/18 10:38:51;;;;;;;19.25;9.88;;;3.10;99.90;;;;;;5068874;28;20363;-80
2021/12/18 10:41:32;;;;;;;20.23;10.10;;;3.20;99.90;;;;;;5045935;28;20044;-80
2021/12/18 10:44:01;;;;;;;19.15;10.10;;;3.20;99.90;;;;;;5058734;28;20021;-80
2021/12/18 10:46:29;;;;;;;18.02;10.00;;;3.20;99.90;;;;;;5041043;28;20043;-80
2021/12/18 10:49:00;;;;;;;22.52;11.00;;;3.20;99.90;;;;;;5077140;28;20037;-80
2021/12/18 10:51:30;;;;;;;20.05;10.27;;;3.10;99.90;;;;;;5086570;28;20024;-80
2021/12/18 10:54:14;;;;;;;23.27;10.90;;;3.10;99.90;;;;;;5070967;28;20036;-80
2021/12/18 10:56:44;;;;;;;23.10;11.07;;;2.90;99.90;;;;;;5097191;28;20063;-82
2021/12/18 10:59:26;;;;;;;25.50;12.57;;;2.90;99.90;;;;;;5070706;28;20087;-78
2021/12/18 11:01:55;;;;;;;24.23;12.13;;;2.70;99.90;;;;;;5048117;28;20025;-79
2021/12/18 11:04:27;;;;;;;21.50;11.07;;;2.70;99.90;;;;;;5060996;28;20021;-80
2021/12/18 11:06:55;;;;;;;21.23;11.00;;;2.70;99.90;;;;;;5042422;28;20129;-80
2021/12/18 11:09:28;;;;;;;19.63;10.40;;;2.90;99.90;;;;;;5066234;28;20021;-79
2021/12/18 11:14:42;;;;;;;19.05;9.80;;;3.10;99.90;;;;;;5078671;28;20043;-78
2021/12/18 11:17:11;;;;;;;25.75;11.85;;;3.10;99.90;;;;;;5066662;28;20039;-79
2021/12/18 11:19:38;;;;;;;18.60;10.05;;;3.10;99.90;;;;;;5063627;28;20048;-80
2021/12/18 11:22:07;;;;;;;19.65;11.15;;;3.10;99.90;;;;;;5066860;28;20747;-80
2021/12/18 11:24:40;;;;;;;23.25;11.50;;;3.10;99.90;;;;;;5072727;28;20020;-80
2021/12/18 11:27:06;;;;;;;19.30;10.43;;;3.00;99.90;;;;;;5060673;28;20056;-79
2021/12/18 11:29:55;;;;;;;16.35;8.88;;;3.00;99.90;;;;;;5041298;28;20016;-78
2021/12/18 11:32:24;;;;;;;18.60;9.63;;;3.10;99.90;;;;;;5069705;28;20385;-78
2021/12/18 11:34:54;;;;;;;21.58;11.27;;;3.10;99.90;;;;;;5060662;28;20029;-79
2021/12/18 11:37:21;;;;;;;21.55;10.55;;;3.10;99.90;;;;;;5075374;28;20032;-78
2021/12/18 11:39:48;;;;;;;21.80;11.27;;;3.00;99.90;;;;;;5059578;28;20611;-81
2021/12/18 11:42:15;;;;;;;23.65;11.60;;;2.90;99.70;;;;;;5068346;28;20110;-78
2021/12/18 11:44:45;;;;;;;22.52;11.07;;;2.90;99.90;;;;;;5070504;28;20035;-81
2021/12/18 11:47:30;;;;;;;23.38;11.13;;;2.90;99.90;;;;;;5062595;28;20043;-80
2021/12/18 11:50:27;;;;;;;22.70;10.98;;;3.00;99.90;;;;;;5080875;28;20464;-79
2021/12/18 11:53:10;;;;;;;23.65;10.70;;;2.90;99.90;;;;;;5071137;28;20075;-79
2021/12/18 11:56:00;;;;;;;22.15;11.80;;;3.00;99.90;;;;;;5057481;28;20037;-79
2021/12/18 11:58:29;;;;;;;22.15;12.30;;;3.00;99.90;;;;;;5060211;28;20033;-80
2021/12/18 12:01:04;;;;;;;28.30;12.55;;;2.90;99.90;;;;;;5040570;28;20546;-80
2021/12/18 12:03:33;;;;;;;23.95;11.95;;;2.80;99.90;;;;;;5065144;28;20026;-78
2021/12/18 12:06:02;;;;;;;20.58;10.77;;;2.80;99.90;;;;;;5080270;28;20013;-81
2021/12/18 12:08:35;;;;;;;19.92;9.50;;;2.80;99.90;;;;;;5078455;28;20035;-80
2021/12/18 12:11:23;;;;;;;17.90;9.02;;;3.00;99.90;;;;;;5037180;28;20029;-79
2021/12/18 12:13:58;;;;;;;18.33;9.60;;;3.20;99.90;;;;;;5061930;28;20115;-80
2021/12/18 12:16:45;;;;;;;15.85;8.98;;;3.30;99.90;;;;;;5052901;28;20025;-80
2021/12/18 12:19:19;;;;;;;25.02;11.32;;;3.30;99.90;;;;;;5061697;28;20025;-80
2021/12/18 12:21:52;;;;;;;21.48;11.57;;;3.20;99.90;;;;;;5069907;28;20029;-80
2021/12/18 12:24:26;;;;;;;22.92;11.02;;;3.10;99.90;;;;;;5064037;28;20044;-80
2021/12/18 12:26:54;;;;;;;17.70;9.35;;;3.10;99.90;;;;;;5073543;28;20040;-81
2021/12/18 12:29:21;;;;;;;24.23;11.50;;;3.10;99.90;;;;;;5062687;28;20029;-80
2021/12/18 12:31:58;;;;;;;22.52;11.07;;;3.10;99.90;;;;;;5062849;28;20059;-79
2021/12/18 12:34:37;;;;;;;20.63;10.35;;;3.00;99.90;;;;;;5077893;28;20028;-81
2021/12/18 12:37:28;;;;;;;22.48;11.27;;;2.90;99.90;;;;;;5041253;28;20047;-80
2021/12/18 12:40:04;;;;;;;19.38;9.57;;;2.70;99.90;;;;;;5060079;28;20115;-80
2021/12/18 12:42:30;;;;;;;22.10;10.43;;;2.80;99.90;;;;;;5077566;28;20016;-80
2021/12/18 12:45:07;;;;;;;20.02;9.20;;;2.70;99.90;;;;;;5077841;28;20055;-81
2021/12/18 12:47:34;;;;;;;21.35;10.32;;;2.70;99.90;;;;;;5072444;28;20512;-80
2021/12/18 12:50:12;;;;;;;21.27;9.95;;;2.80;99.90;;;;;;5057122;28;20405;-79
2021/12/18 12:53:01;;;;;;;25.75;11.68;;;2.80;99.90;;;;;;5038189;28;20025;-80
2021/12/18 12:55:48;;;;;;;24.05;11.07;;;2.70;99.90;;;;;;5045451;28;20020;-79
2021/12/18 12:58:26;;;;;;;23.27;11.40;;;2.50;99.90;;;;;;5063432;28;20180;-82
2021/12/18 13:00:59;;;;;;;27.33;11.20;;;2.50;99.90;;;;;;5067845;28;20059;-80
2021/12/18 13:03:30;;;;;;;21.08;11.13;;;2.40;99.90;;;;;;5078958;28;20025;-80
2021/12/18 13:06:06;;;;;;;22.23;10.43;;;2.50;99.90;;;;;;5063195;28;20195;-81
2021/12/18 13:08:35;;;;;;;21.15;10.77;;;2.60;99.90;;;;;;5062612;28;20033;-81
2021/12/18 13:11:01;;;;;;;22.08;11.73;;;2.70;99.90;;;;;;5079385;28;20819;-81
2021/12/18 13:13:30;;;;;;;23.92;10.90;;;2.60;99.90;;;;;;5078538;28;20032;-80
2021/12/18 13:16:06;;;;;;;23.75;11.73;;;2.60;99.90;;;;;;5058209;28;20058;-80
2021/12/18 13:18:52;;;;;;;25.95;11.95;;;2.60;99.90;;;;;;5067200;28;20013;-78
2021/12/18 13:21:20;;;;;;;23.05;10.98;;;2.60;99.90;;;;;;5079158;28;20017;-80
2021/12/18 13:23:49;;;;;;;20.27;10.15;;;2.60;99.90;;;;;;5073725;28;20385;-80
2021/12/18 13:26:32;;;;;;;21.70;10.18;;;2.70;99.90;;;;;;5057899;28;20116;-80
2021/12/18 13:29:01;;;;;;;;;;;2.70;99.90;;;;;;5052507;28;20032;-81
2021/12/18 13:31:30;;;;;;;20.77;10.43;;;2.60;99.90;;;;;;5062782;28;19912;-80
2021/12/18 13:34:09;;;;;;;21.60;10.43;;;2.50;99.90;;;;;;5061126;28;20031;-81
2021/12/18 13:36:59;;;;;;;26.00;12.60;;;2.50;99.90;;;;;;5080810;28;20027;-82
2021/12/18 13:39:32;;;;;;;27.00;12.32;;;2.50;99.90;;;;;;5054252;28;20048;-79
2021/12/18 13:41:59;;;;;;;23.65;11.43;;;2.50;99.90;;;;;;5080782;28;20030;-81